createdAt,value
2022-09-07T00:02:06.750Z,100229.72
2022-09-07T00:04:34.617Z,100221.53
2022-09-07T00:07:02.675Z,100207.75
2022-09-07T00:09:30.553Z,100211.22
2022-09-07T00:11:59.322Z,100196.97
2022-09-07T00:14:29.862Z,100198.66
2022-09-07T00:17:02.954Z,100192.69
2022-09-07T00:19:31.239Z,100175.75
2022-09-07T00:21:59.171Z,100183.09
2022-09-07T00:24:27.639Z,100205.72
2022-09-07T00:26:56.733Z,100202.72
2022-09-07T00:29:24.930Z,100204.66
2022-09-07T00:31:55.048Z,100223.91
2022-09-07T00:34:24.778Z,100249.59
2022-09-07T00:36:53.493Z,100292.63
2022-09-07T00:39:22.302Z,100310.06
2022-09-07T00:41:50.944Z,100324.06
2022-09-07T00:44:56.437Z,100350.53
2022-09-07T00:47:28.622Z,100367.63
2022-09-07T00:49:59.758Z,100373.88
2022-09-07T00:52:28.846Z,100381.06
2022-09-07T00:54:58.619Z,100383.63
2022-09-07T00:57:28.280Z,100382.84
2022-09-07T00:59:57.869Z,100360.28
2022-09-07T01:02:30.053Z,100366.03
2022-09-07T01:05:09.399Z,100358.47
2022-09-07T01:07:37.970Z,100358.47
2022-09-07T01:10:06.818Z,100365.59
2022-09-07T01:12:34.466Z,100367.22
2022-09-07T01:15:02.767Z,100375.38
2022-09-07T01:17:42.685Z,100391.69
2022-09-07T01:20:33.845Z,100393.09
2022-09-07T01:23:25.482Z,100395.00
2022-09-07T01:26:05.153Z,100391.72
2022-09-07T01:28:37.958Z,100383.03
2022-09-07T01:31:13.186Z,100383.03
2022-09-07T01:33:51.457Z,100378.16
2022-09-07T01:36:25.307Z,100389.59
2022-09-07T01:38:56.102Z,100401.25
2022-09-07T01:41:29.207Z,100415.13
2022-09-07T01:44:02.988Z,100412.06
2022-09-07T01:46:33.686Z,100422.69
2022-09-07T01:49:06.326Z,100416.09
2022-09-07T01:51:36.543Z,100409.03
2022-09-07T01:54:09.202Z,100417.16
2022-09-07T01:56:43.725Z,100413.28
2022-09-07T01:59:18.326Z,100410.56
2022-09-07T02:01:50.511Z,100403.53
2022-09-07T02:04:22.031Z,100406.75
2022-09-07T02:06:53.910Z,100395.09
2022-09-07T02:09:29.133Z,100392.13
2022-09-07T02:11:57.083Z,100390.47
2022-09-07T02:14:32.551Z,100376.88
2022-09-07T02:17:05.415Z,100380.16
2022-09-07T02:19:35.357Z,100373.03
2022-09-07T02:22:10.102Z,100370.34
2022-09-07T02:24:41.328Z,100362.75
2022-09-07T02:27:12.243Z,100358.94
2022-09-07T02:29:44.510Z,100356.78
2022-09-07T02:32:12.699Z,100355.69
2022-09-07T02:34:41.510Z,100360.03
2022-09-07T02:37:10.675Z,100342.66
2022-09-07T02:39:39.172Z,100336.19
2022-09-07T02:42:07.668Z,100325.34
2022-09-07T02:44:38.919Z,100319.09
2022-09-07T02:47:15.329Z,100314.50
2022-09-07T02:49:57.563Z,100324.22
2022-09-07T02:52:34.972Z,100314.75
2022-09-07T02:55:11.726Z,100310.44
2022-09-07T02:57:47.582Z,100299.81
2022-09-07T03:00:18.106Z,100291.16
2022-09-07T03:02:53.305Z,100285.22
2022-09-07T03:05:24.333Z,100278.75
2022-09-07T03:07:56.682Z,100262.47
2022-09-07T03:10:25.505Z,100257.59
2022-09-07T03:12:54.069Z,100255.41
2022-09-07T03:15:24.010Z,100259.75
2022-09-07T03:17:54.950Z,100249.47
2022-09-07T03:20:24.500Z,100243.75
2022-09-07T03:22:53.336Z,100247.78
2022-09-07T03:25:23.223Z,100245.63
2022-09-07T03:27:50.923Z,100241.50
2022-09-07T03:30:18.719Z,100237.44
2022-09-07T03:32:47.534Z,100231.44
2022-09-07T03:35:17.952Z,100246.59
2022-09-07T03:37:46.109Z,100249.75
2022-09-07T03:40:15.981Z,100250.09
2022-09-07T03:42:44.224Z,100257.31
2022-09-07T03:45:12.405Z,100246.72
2022-09-07T03:47:41.506Z,100246.34
2022-09-07T03:50:10.489Z,100242.41
2022-09-07T03:52:40.789Z,100245.16
2022-09-07T03:55:09.495Z,100239.94
2022-09-07T03:57:37.440Z,100243.41
2022-09-07T04:00:06.433Z,100240.63
2022-09-07T04:02:34.785Z,100246.53
2022-09-07T04:05:03.215Z,100250.06
2022-09-07T04:07:31.577Z,100255.56
2022-09-07T04:10:01.024Z,100261.16
2022-09-07T04:12:29.929Z,100257.06
2022-09-07T04:14:58.495Z,100248.47
2022-09-07T04:17:26.240Z,100256.31
2022-09-07T04:19:54.469Z,100261.50
2022-09-07T04:22:23.285Z,100254.22
2022-09-07T04:24:51.537Z,100250.91
2022-09-07T04:27:20.693Z,100244.84
2022-09-07T04:29:50.159Z,100240.03
2022-09-07T04:32:18.718Z,100246.84
2022-09-07T04:34:47.623Z,100255.03
2022-09-07T04:37:15.409Z,100263.91
2022-09-07T04:39:43.253Z,100254.53
2022-09-07T04:42:11.120Z,100254.22
2022-09-07T04:44:43.318Z,100254.25
2022-09-07T04:47:12.009Z,100247.94
2022-09-07T04:49:41.131Z,100251.50
2022-09-07T04:52:09.602Z,100239.38
2022-09-07T04:54:41.632Z,100242.84
2022-09-07T04:57:10.957Z,100248.03
2022-09-07T04:59:40.226Z,100256.09
2022-09-07T05:02:09.866Z,100257.75
2022-09-07T05:04:38.645Z,100250.56
2022-09-07T05:07:06.595Z,100259.09
2022-09-07T05:09:35.370Z,100261.81
2022-09-07T05:12:05.298Z,100259.66
2022-09-07T05:14:35.080Z,100265.63
2022-09-07T05:17:07.678Z,100274.00
2022-09-07T05:19:35.320Z,100273.13
2022-09-07T05:22:05.425Z,100271.78
2022-09-07T05:24:36.856Z,100271.72
2022-09-07T05:27:04.629Z,100276.44
2022-09-07T05:32:21.628Z,100285.03
2022-09-07T05:34:52.969Z,100279.13
2022-09-07T05:37:20.956Z,100287.84
2022-09-07T05:39:51.572Z,100282.47
2022-09-07T05:42:20.134Z,100273.59
2022-09-07T05:44:48.368Z,100271.75
2022-09-07T05:47:16.291Z,100271.16
2022-09-07T05:49:48.789Z,100273.50
2022-09-07T05:52:16.848Z,100269.19
2022-09-07T05:54:47.325Z,100276.22
2022-09-07T05:57:15.366Z,100275.00
2022-09-07T05:59:43.120Z,100276.09
2022-09-07T06:02:12.320Z,100287.75
2022-09-07T06:04:40.216Z,100282.97
2022-09-07T06:07:21.554Z,100290.84
2022-09-07T06:12:39.652Z,100290.41
2022-09-07T06:15:09.515Z,100294.19
2022-09-07T06:17:37.832Z,100302.38
2022-09-07T06:20:07.889Z,100301.59
2022-09-07T06:23:39.832Z,100294.88
2022-09-07T06:26:09.967Z,100299.00
2022-09-07T06:28:39.461Z,100307.41
2022-09-07T06:31:08.726Z,100313.97
2022-09-07T06:33:38.030Z,100312.88
2022-09-07T06:36:08.123Z,100314.59
2022-09-07T06:38:38.151Z,100317.84
2022-09-07T06:43:59.634Z,100307.56
2022-09-07T06:49:16.008Z,100313.03
2022-09-07T06:51:44.461Z,100321.72
2022-09-07T06:57:09.325Z,100328.78
2022-09-07T06:59:37.706Z,100323.31
2022-09-07T07:02:05.835Z,100319.00
2022-09-07T07:04:39.357Z,100328.78
2022-09-07T07:07:11.147Z,100318.44
2022-09-07T07:09:39.401Z,100324.97
2022-09-07T07:12:08.854Z,100321.75
2022-09-07T07:14:39.604Z,100326.03
2022-09-07T07:17:09.947Z,100320.09
2022-09-07T07:19:38.314Z,100321.16
2022-09-07T07:22:23.811Z,100312.47
2022-09-07T07:24:57.127Z,100318.72
2022-09-07T07:27:26.476Z,100321.44
2022-09-07T07:29:54.861Z,100321.16
2022-09-07T07:32:22.570Z,100324.16
2022-09-07T07:34:50.465Z,100326.59
2022-09-07T07:37:18.584Z,100343.97
2022-09-07T07:42:36.229Z,100318.38
2022-09-07T07:47:52.066Z,100342.69
2022-09-07T07:50:35.278Z,100345.94
2022-09-07T07:55:51.298Z,100350.00
2022-09-07T07:58:21.460Z,100350.53
2022-09-07T08:00:57.063Z,100353.00
2022-09-07T08:03:26.817Z,100355.97
2022-09-07T08:05:54.971Z,100362.00
2022-09-07T08:08:24.137Z,100366.31
2022-09-07T08:10:52.421Z,100367.13
2022-09-07T08:13:22.684Z,100375.50
2022-09-07T08:15:50.801Z,100380.69
2022-09-07T08:18:18.957Z,100384.09
2022-09-07T08:20:47.017Z,100384.03
2022-09-07T08:23:15.336Z,100385.53
2022-09-07T08:25:51.027Z,100382.75
2022-09-07T08:28:18.828Z,100382.50
2022-09-07T08:30:48.202Z,100391.78
2022-09-07T08:33:16.532Z,100390.88
2022-09-07T08:35:44.693Z,100392.81
2022-09-07T08:38:12.769Z,100395.25
2022-09-07T08:40:40.888Z,100405.75
2022-09-07T08:43:13.983Z,100399.28
2022-09-07T08:45:45.245Z,100397.66
2022-09-07T08:48:18.926Z,100403.97
2022-09-07T08:50:53.208Z,100400.25
2022-09-07T08:53:21.440Z,100407.75
2022-09-07T08:55:52.833Z,100410.16
2022-09-07T08:58:47.720Z,100409.81
2022-09-07T09:04:19.350Z,100405.00
2022-09-07T09:06:55.747Z,100398.81
2022-09-07T09:09:32.452Z,100408.84
2022-09-07T09:12:09.419Z,100412.06
2022-09-07T09:14:49.236Z,100409.03
2022-09-07T09:17:24.883Z,100412.38
2022-09-07T09:20:00.411Z,100417.22
2022-09-07T09:22:28.540Z,100410.59
2022-09-07T09:25:01.680Z,100413.28
2022-09-07T09:27:29.721Z,100420.09
2022-09-07T09:29:57.727Z,100431.84
2022-09-07T09:32:37.841Z,100439.91
2022-09-07T09:35:14.018Z,100439.44
2022-09-07T09:37:46.971Z,100435.97
2022-09-07T09:40:24.219Z,100439.06
2022-09-07T09:43:03.580Z,100428.50
2022-09-07T09:46:12.266Z,100420.81
2022-09-07T09:48:33.462Z,100424.09
2022-09-07T09:53:56.504Z,100426.94
2022-09-07T09:56:37.286Z,100432.75
2022-09-07T10:05:28.955Z,100411.03
2022-09-07T10:07:59.077Z,100409.78
2022-09-07T10:10:28.053Z,100407.50
2022-09-07T10:12:56.916Z,100396.53
2022-09-07T10:15:28.084Z,100392.63
2022-09-07T10:17:55.756Z,100378.16
2022-09-07T10:20:36.116Z,100368.72
2022-09-07T10:23:07.225Z,100359.31
2022-09-07T10:25:37.482Z,100358.25
2022-09-07T10:28:17.690Z,100373.06
2022-09-07T10:30:56.675Z,100378.34
2022-09-07T10:33:28.798Z,100383.75
2022-09-07T10:36:01.392Z,100386.81
2022-09-07T10:38:38.404Z,100394.03
2022-09-07T10:41:08.505Z,100385.94
2022-09-07T10:43:43.558Z,100385.50
2022-09-07T10:49:27.390Z,100394.22
2022-09-07T10:52:03.426Z,100395.09
2022-09-07T10:54:39.307Z,100405.34
2022-09-07T10:57:28.390Z,100398.63
2022-09-07T11:00:08.749Z,100405.53
2022-09-07T11:05:55.167Z,100400.50
2022-09-07T11:09:15.045Z,100401.41
2022-09-07T11:14:17.536Z,100406.88
2022-09-07T11:16:51.920Z,100403.75
2022-09-07T11:19:37.746Z,100412.94
2022-09-07T11:22:14.516Z,100412.06
2022-09-07T11:27:49.040Z,100402.88
2022-09-07T11:30:23.814Z,100418.69
2022-09-07T11:32:59.884Z,100411.69
2022-09-07T11:35:42.832Z,100413.31
2022-09-07T11:38:26.663Z,100413.53
2022-09-07T11:41:14.727Z,100416.09
2022-09-07T11:43:47.488Z,100417.28
2022-09-07T11:46:18.042Z,100423.66
2022-09-07T11:48:48.696Z,100410.75
2022-09-07T11:51:21.907Z,100418.59
2022-09-07T11:53:53.510Z,100413.25
2022-09-07T11:56:25.682Z,100423.94
2022-09-07T11:59:06.691Z,100415.09
2022-09-07T12:01:42.176Z,100416.06
2022-09-07T12:04:26.147Z,100410.06
2022-09-07T12:07:21.352Z,100410.72
2022-09-07T12:10:17.014Z,100417.84
2022-09-07T12:13:06.379Z,100411.72
2022-09-07T12:15:42.967Z,100411.72
2022-09-07T12:18:22.282Z,100412.56
2022-09-07T12:20:50.788Z,100407.75
2022-09-07T12:23:33.757Z,100406.69
2022-09-07T12:26:49.492Z,100402.41
2022-09-07T12:29:23.159Z,100396.00
2022-09-07T12:31:58.647Z,100403.19
2022-09-07T12:34:54.820Z,100392.63
2022-09-07T12:37:42.666Z,100388.13
2022-09-07T12:40:59.615Z,100391.84
2022-09-07T12:43:50.002Z,100389.50
2022-09-07T12:46:42.660Z,100381.13
2022-09-07T12:49:19.835Z,100387.78
2022-09-07T12:52:13.938Z,100378.28
2022-09-07T12:54:59.682Z,100377.19
2022-09-07T12:57:40.476Z,100377.38
2022-09-07T13:00:16.319Z,100369.19
2022-09-07T13:03:49.359Z,100371.91
2022-09-07T13:06:04.364Z,100368.25
2022-09-07T13:08:55.210Z,100364.97
2022-09-07T13:11:35.638Z,100372.09
2022-09-07T13:14:08.541Z,100375.47
2022-09-07T13:20:13.416Z,100368.34
2022-09-07T13:23:09.395Z,100364.25
2022-09-07T13:25:48.665Z,100352.81
2022-09-07T13:28:25.014Z,100361.09
2022-09-07T13:31:02.078Z,100366.31
2022-09-07T13:33:51.014Z,100362.22
2022-09-07T13:36:40.228Z,100360.56
2022-09-07T13:39:14.597Z,100363.91
2022-09-07T13:41:45.067Z,100363.44
2022-09-07T13:44:26.162Z,100354.34
2022-09-07T13:47:20.248Z,100352.53
2022-09-07T13:50:05.379Z,100342.41
2022-09-07T13:52:45.014Z,100345.72
2022-09-07T13:55:27.671Z,100336.09
2022-09-07T13:58:07.895Z,100325.97
2022-09-07T14:00:36.111Z,100329.22
2022-09-07T14:03:06.681Z,100329.75
2022-09-07T14:05:37.212Z,100338.47
2022-09-07T14:08:06.163Z,100338.84
2022-09-07T14:10:36.843Z,100324.06
2022-09-07T14:13:09.006Z,100321.44
2022-09-07T14:15:40.596Z,100323.78
2022-09-07T14:18:13.358Z,100318.22
2022-09-07T14:20:43.377Z,100324.88
2022-09-07T14:23:22.012Z,100328.19
2022-09-07T14:26:16.936Z,100333.88
2022-09-07T14:28:46.908Z,100318.53
2022-09-07T14:31:17.311Z,100330.72
2022-09-07T14:33:53.636Z,100320.03
2022-09-07T14:36:44.223Z,100311.44
2022-09-07T14:39:15.062Z,100309.97
2022-09-07T14:41:46.963Z,100312.72
2022-09-07T14:44:28.840Z,100309.13
2022-09-07T14:46:57.492Z,100315.09
2022-09-07T14:49:25.605Z,100310.69
2022-09-07T14:51:54.181Z,100318.19
2022-09-07T14:54:22.816Z,100310.88
2022-09-07T14:57:07.855Z,100307.66
2022-09-07T14:59:41.343Z,100299.88
2022-09-07T15:02:35.647Z,100311.81
2022-09-07T15:05:34.382Z,100307.97
2022-09-07T15:08:03.523Z,100315.00
2022-09-07T15:10:41.608Z,100312.31
2022-09-07T15:13:29.216Z,100314.06
2022-09-07T15:16:03.331Z,100299.91
2022-09-07T15:18:55.696Z,100298.06
2022-09-07T15:21:27.324Z,100313.28
2022-09-07T15:23:58.495Z,100313.38
2022-09-07T15:29:21.569Z,100299.09
2022-09-07T15:32:02.256Z,100304.22
2022-09-07T15:34:32.217Z,100301.06
2022-09-07T15:37:01.395Z,100309.59
2022-09-07T15:39:31.336Z,100299.25
2022-09-07T15:42:58.898Z,100292.78
2022-09-07T15:44:50.362Z,100293.69
2022-09-07T15:50:07.839Z,100299.41
2022-09-07T15:52:35.579Z,100310.22
2022-09-07T15:55:03.279Z,100302.16
2022-09-07T15:57:50.163Z,100290.19
2022-09-07T16:00:21.417Z,100302.88
2022-09-07T16:03:06.272Z,100295.56
2022-09-07T16:05:35.722Z,100283.41
2022-09-07T16:10:54.256Z,100289.38
2022-09-07T16:13:24.389Z,100282.44
2022-09-07T16:15:54.052Z,100283.13
2022-09-07T16:18:22.060Z,100280.06
2022-09-07T16:20:52.721Z,100274.81
2022-09-07T16:23:20.954Z,100268.63
2022-09-07T16:26:07.483Z,100274.13
2022-09-07T16:28:36.028Z,100265.59
2022-09-07T16:31:08.902Z,100257.84
2022-09-07T16:33:37.522Z,100262.25
2022-09-07T16:36:07.582Z,100260.88
2022-09-07T16:38:51.384Z,100252.94
2022-09-07T16:41:21.223Z,100257.50
2022-09-07T16:43:49.975Z,100248.19
2022-09-07T16:46:20.185Z,100245.53
2022-09-07T16:48:49.691Z,100246.25
2022-09-07T16:51:20.661Z,100248.84
2022-09-07T16:53:48.862Z,100245.22
2022-09-07T16:56:17.754Z,100253.94
2022-09-07T16:58:48.284Z,100241.72
2022-09-07T17:01:17.825Z,100244.00
2022-09-07T17:03:50.460Z,100241.19
2022-09-07T17:06:20.427Z,100233.50
2022-09-07T17:08:48.817Z,100239.25
2022-09-07T17:11:18.123Z,100236.13
2022-09-07T17:13:46.453Z,100243.00
2022-09-07T17:16:16.685Z,100233.78
2022-09-07T17:21:35.343Z,100228.94
2022-09-07T17:24:04.554Z,100229.97
2022-09-07T17:26:33.523Z,100237.88
2022-09-07T17:29:01.605Z,100234.84
2022-09-07T17:34:21.557Z,100230.50
2022-09-07T17:36:51.505Z,100232.97
2022-09-07T17:39:19.887Z,100229.72
2022-09-07T17:41:48.396Z,100229.78
2022-09-07T17:44:16.536Z,100240.78
2022-09-07T17:46:44.409Z,100235.59
2022-09-07T17:49:14.701Z,100238.16
2022-09-07T17:51:42.631Z,100233.00
2022-09-07T17:54:13.260Z,100240.97
2022-09-07T17:56:41.949Z,100232.41
2022-09-07T18:01:58.243Z,100236.97
2022-09-07T18:04:27.182Z,100232.31
2022-09-07T18:06:55.804Z,100236.59
2022-09-07T18:09:25.045Z,100238.56
2022-09-07T18:11:52.812Z,100239.47
2022-09-07T18:14:21.096Z,100228.44
2022-09-07T18:16:50.286Z,100240.66
2022-09-07T18:20:19.862Z,100239.97
2022-09-07T18:22:48.339Z,100241.63
2022-09-07T18:25:19.789Z,100241.69
2022-09-07T18:29:03.047Z,100240.31
2022-09-07T18:30:38.300Z,100254.69
2022-09-07T18:33:06.596Z,100246.56
2022-09-07T18:35:34.346Z,100244.69
2022-09-07T18:38:02.179Z,100246.84
2022-09-07T18:40:33.404Z,100239.22
2022-09-07T18:43:04.779Z,100240.28
2022-09-07T18:45:32.546Z,100240.31
2022-09-07T18:48:00.999Z,100244.16
2022-09-07T18:50:28.726Z,100247.38
2022-09-07T18:53:01.619Z,100240.31
2022-09-07T18:55:43.655Z,100246.31
2022-09-07T18:58:12.244Z,100238.44
2022-09-07T19:00:45.029Z,100239.78
2022-09-07T19:03:13.061Z,100240.63
2022-09-07T19:05:55.934Z,100241.97
2022-09-07T19:08:23.703Z,100241.44
2022-09-07T19:10:52.973Z,100245.09
2022-09-07T19:13:21.380Z,100243.94
2022-09-07T19:15:48.996Z,100242.91
2022-09-07T19:18:17.943Z,100232.19
2022-09-07T19:20:45.570Z,100232.59
2022-09-07T19:23:13.486Z,100234.47
2022-09-07T19:25:42.149Z,100228.28
2022-09-07T19:28:11.231Z,100232.06
2022-09-07T19:30:38.818Z,100228.78
2022-09-07T19:33:10.418Z,100232.63
2022-09-07T19:35:37.987Z,100231.81
2022-09-07T19:38:05.730Z,100225.56
2022-09-07T19:40:33.334Z,100226.34
2022-09-07T19:43:02.905Z,100225.53
2022-09-07T19:45:32.183Z,100229.59
2022-09-07T19:47:59.774Z,100223.81
2022-09-07T19:50:27.906Z,100221.94
2022-09-07T19:52:56.678Z,100212.81
2022-09-07T19:55:25.602Z,100208.94
2022-09-07T19:57:53.807Z,100211.38
2022-09-07T20:00:22.575Z,100210.25
2022-09-07T20:02:52.239Z,100212.47
2022-09-07T20:05:20.051Z,100210.31
2022-09-07T20:07:47.667Z,100207.59
2022-09-07T20:10:15.645Z,100208.91
2022-09-07T20:12:43.263Z,100208.59
2022-09-07T20:15:11.430Z,100205.31
2022-09-07T20:17:39.581Z,100200.22
2022-09-07T20:20:10.742Z,100197.81
2022-09-07T20:22:39.089Z,100196.78
2022-09-07T20:25:12.545Z,100197.91
2022-09-07T20:27:41.621Z,100200.03
2022-09-07T20:30:10.398Z,100197.09
2022-09-07T20:32:37.947Z,100192.88
2022-09-07T20:35:06.328Z,100186.34
2022-09-07T20:37:35.879Z,100184.56
2022-09-07T20:40:04.306Z,100184.31
2022-09-07T20:42:32.239Z,100176.16
2022-09-07T20:44:59.806Z,100181.53
2022-09-07T20:47:28.468Z,100178.75
2022-09-07T20:49:56.214Z,100184.66
2022-09-07T20:52:24.398Z,100176.53
2022-09-07T20:54:53.554Z,100186.22
2022-09-07T20:57:21.202Z,100177.72
2022-09-07T20:59:49.148Z,100183.94
2022-09-07T21:02:17.216Z,100185.66
2022-09-07T21:04:46.042Z,100180.28
2022-09-07T21:07:13.792Z,100184.38
2022-09-07T21:09:42.330Z,100183.44
2022-09-07T21:12:11.242Z,100183.00
2022-09-07T21:14:38.859Z,100185.94
2022-09-07T21:17:06.668Z,100183.53
2022-09-07T21:19:34.346Z,100190.03
2022-09-07T21:22:01.922Z,100192.84
2022-09-07T21:24:29.615Z,100179.34
2022-09-07T21:26:57.242Z,100182.84
2022-09-07T21:29:28.178Z,100179.56
2022-09-07T21:31:56.166Z,100183.13
2022-09-07T21:34:24.511Z,100180.69
2022-09-07T21:36:52.935Z,100181.19
2022-09-07T21:39:21.903Z,100170.56
2022-09-07T21:41:50.126Z,100177.91
2022-09-07T21:44:17.871Z,100182.56
2022-09-07T21:46:47.731Z,100177.78
2022-09-07T21:49:15.694Z,100171.63
2022-09-07T21:51:43.322Z,100172.81
2022-09-07T21:54:10.955Z,100166.16
2022-09-07T21:56:41.079Z,100163.69
2022-09-07T21:59:12.345Z,100159.84
2022-09-07T22:01:40.780Z,100161.75
2022-09-07T22:04:09.948Z,100160.69
2022-09-07T22:06:37.737Z,100165.59
2022-09-07T22:09:06.082Z,100162.56
2022-09-07T22:11:34.374Z,100167.34
2022-09-07T22:14:03.885Z,100162.00
2022-09-07T22:16:32.535Z,100167.59
2022-09-07T22:19:00.453Z,100151.13
2022-09-07T22:21:30.377Z,100151.84
2022-09-07T22:23:59.139Z,100141.72
2022-09-07T22:26:29.774Z,100140.81
2022-09-07T22:28:58.778Z,100139.03
2022-09-07T22:31:28.483Z,100140.41
2022-09-07T22:33:57.292Z,100143.78
2022-09-07T22:36:27.968Z,100137.78
2022-09-07T22:38:58.011Z,100132.69
2022-09-07T22:41:28.192Z,100134.50
2022-09-07T22:43:56.063Z,100143.50
2022-09-07T22:46:25.580Z,100136.09
2022-09-07T22:48:54.383Z,100140.44
2022-09-07T22:51:22.434Z,100137.66
2022-09-07T22:53:50.141Z,100124.16
2022-09-07T22:56:21.311Z,100120.88
2022-09-07T22:58:50.647Z,100113.94
2022-09-07T23:01:18.523Z,100116.28
2022-09-07T23:03:46.733Z,100109.47
2022-09-07T23:06:25.169Z,100110.44
2022-09-07T23:08:54.210Z,100106.97
2022-09-07T23:11:24.280Z,100101.91
2022-09-07T23:13:53.144Z,100097.53
2022-09-07T23:16:21.962Z,100088.06
2022-09-07T23:18:49.918Z,100081.13
2022-09-07T23:21:18.006Z,100082.19
2022-09-07T23:23:50.148Z,100086.66
2022-09-07T23:26:17.926Z,100089.69
2022-09-07T23:28:52.335Z,100090.22
2022-09-07T23:31:20.098Z,100087.81
2022-09-07T23:33:47.962Z,100105.81
2022-09-07T23:36:16.547Z,100097.81
2022-09-07T23:38:44.337Z,100095.19
2022-09-07T23:41:13.923Z,100112.06
2022-09-07T23:43:42.782Z,100108.38
2022-09-07T23:46:13.175Z,100096.13
2022-09-07T23:48:40.912Z,100091.84
2022-09-07T23:51:09.078Z,100088.47
2022-09-07T23:53:36.784Z,100071.53
2022-09-07T23:56:05.216Z,100070.34
2022-09-07T23:58:33.059Z,100065.00
